Carisio -Volopuro-

IT-0770 · 皮埃蒙特, 意大利

使用的METAR站距离机场47 km。
罗盘
风向 的 风向 020° Carisio -Volopuro- 11/29
风: 5 kt, 2 beaufort


5 kt
改变
0 ft 1.000 2.000 3.000 4.000 5.000
Cloud Cloud Cloud Cloud
SCT 4.000
METAR LIMC 232250Z 02005KT 9999 R35R/P2000N R17L/0700D R35L/P2000N BCFG SCT040 03/02 Q1000 NOSIG

METAR Carisio -Volopuro- - IT-0770

Carisio -Volopuro-是,意大利中的超轻型飞机场。 该机场位于纬度45,44681和经度8,19099。 该机场有一条跑道: 11/29. 这个机场没有ICAO代码,我们使用IT-0770作为参考。 机场在Milano FIR中。

该航空气象观测是针对Malpensa International Airport在2024年2月23日 23:50, 当地时间进行的。

机场观察

风向为020°,速度为5 kt。

可见度为10 km 或者更多。 跑道35R的能见度为多于 2.000 m 和 没有趋势。 跑道17L的能见度为700 m 和 减少。 跑道35L的能见度为多于 2.000 m 和 没有趋势。

有疏云,零星散落的云朵在4.000 ft的高度。 没有观察到天花板。

当前天气为的补丁 多雾路段。 温度为3 °C,阵风为-2 °C。 露点为2 °C,相对湿度为93%。 海平面上的气压为1000 hPa (QNH)。

白天

今天,太阳从07:16升起,在18:04降落。 这适用于Carisio -Volopuro-,世界夏令时可能有所不同。 当地时间与世界标准时间之间的时差为+1 小时。 当前,没有夏令时有效。

公司介绍

我们没有关于这个机场的公司信息。

体会

到Vliegles.nl去找飞行课程,跳伞和其他飞行体验。 浏览页面,了解Carisio -Volopuro-附近所有可用的活动。 你也可以使用搜索功能来寻找你所在地附近的特定飞行课程、跳伞或其他飞行体验。

警示语

跑道35R处的能见度为多于 2.000 m 和 没有趋势。
跑道17L处的能见度为700 m 和 减少。
跑道35L处的能见度为多于 2.000 m 和 没有趋势。

跑道

Id 标题 侧风 逆风 侧风 %
11/29 112°-292° 5 kt 100 %

逆风成分最大的方向会被突出显示,并用于横风计算。 这并不一定意味着这个方向在使用。

乌云

4.000 ft SCT 疏云,零星散落的云朵

温度 & 天气

天气 的补丁 多雾路段
温度 3 °C
露点 2 °C
相对湿度 93%
风寒 -2 °C
Kp-index 0 (0-9)

白天

日出
07:14 (7:07)
中午
12:38
日落
18:02

小工具

你想在你的网站上有一个关于Carisio -Volopuro-的当前航空天气(METAR)的小部件吗?

显示HTML代码
?>